This is the latest recevied weather packets stored in our database for station/object KI4HRG. If no packets are shown the sender has not sent any weather packets the latest 10 day(s).
| Time | Temp. | Humidity | Pressure | Rain* | Wind** | Luminosity | Snow |
|---|---|---|---|---|---|---|---|
| 1787928272 | 31.11° C | 73% | 1017.6 hPa | 0 mm | - | 570 W/m² | - |
| 1787927971 | 30.56° C | 74% | 1017.4 hPa | 0 mm | - | 564 W/m² | - |
| 1787927665 | 30.56° C | 73% | 1017.6 hPa | 0 mm | - | 560 W/m² | - |
| 1787927359 | 30° C | 74% | 1017.6 hPa | 0 mm | - | 500 W/m² | - |
| 1787927055 | 30° C | 77% | 1017.7 hPa | 0 mm | - | 446 W/m² | - |
| 1787926750 | 30° C | 76% | 1017.6 hPa | 0 mm | - | 434 W/m² | - |
| 1787926448 | 28.89° C | 78% | 1017.4 hPa | 0 mm | - | 452 W/m² | - |
| 1787926143 | 28.33° C | 82% | 1017.4 hPa | 0 mm | - | 433 W/m² | - |
| 1787925842 | 28.89° C | 80% | 1017.3 hPa | 0 mm | - | 377 W/m² | - |
| 1787925541 | 28.89° C | 81% | 1017.6 hPa | 0 mm | - | 355 W/m² | - |
| 1787925236 | 27.78° C | 81% | 1017.4 hPa | 0 mm | - | 356 W/m² | - |
| 1787924935 | 27.78° C | 84% | 1017.5 hPa | 0 mm | - | 348 W/m² | - |
| 1787924631 | 27.78° C | 85% | 1017.6 hPa | 0 mm | - | 269 W/m² | - |
| 1787924325 | 27.78° C | 84% | 1017.4 hPa | 0 mm | - | 247 W/m² | - |
| 1787924020 | 27.22° C | 87% | 1017.5 hPa | 0 mm | - | 257 W/m² | - |
| 1787923715 | 27.22° C | 87% | 1017.5 hPa | 0 mm | - | 271 W/m² | - |
| 1787923410 | 27.22° C | 87% | 1017.4 hPa | 0 mm | - | 269 W/m² | - |
| 1787923105 | 26.67° C | 89% | 1017.5 hPa | 0 mm | - | 270 W/m² | - |
| 1787922800 | 25.56° C | 93% | 1017.5 hPa | 0 mm | - | 249 W/m² | - |
| 1787922500 | 25.56° C | 94% | 1017.3 hPa | 0 mm | - | 204 W/m² | - |
| 1787922199 | 25° C | 95% | 1017.5 hPa | 0 mm | - | 198 W/m² | - |
| 1787921897 | 25° C | 95% | 1017.5 hPa | 0 mm | - | 108 W/m² | - |
| 1787921592 | 25° C | 96% | 1017.3 hPa | 0 mm | - | 119 W/m² | - |
| 1787921291 | 24.44° C | 98% | 1017.3 hPa | 0 mm | - | 94 W/m² | - |
| 1787920987 | 24.44° C | 99% | 1017.4 hPa | 0 mm | - | 83 W/m² | - |
* Rain latest hour (hover to see other rain measurements)
** Current wind speed in m/s (hover to see current wind gust speed)